createdAt,value
2022-12-17T00:00:37.484Z,5.72
2022-12-17T00:03:24.729Z,5.20
2022-12-17T00:06:11.299Z,5.53
2022-12-17T00:08:57.009Z,6.95
2022-12-17T00:11:42.995Z,5.75
2022-12-17T00:14:28.343Z,6.13
2022-12-17T00:17:13.552Z,5.75
2022-12-17T00:19:58.834Z,5.78
2022-12-17T00:22:43.999Z,5.70
2022-12-17T00:25:29.825Z,5.60
2022-12-17T00:28:14.987Z,5.93
2022-12-17T00:31:00.368Z,5.63
2022-12-17T00:33:45.687Z,5.68
2022-12-17T00:36:31.060Z,5.55
2022-12-17T00:39:16.385Z,6.32
2022-12-17T00:42:01.591Z,5.85
2022-12-17T00:44:46.899Z,6.10
2022-12-17T00:47:32.137Z,5.50
2022-12-17T00:50:17.395Z,5.78
2022-12-17T00:53:03.308Z,5.35
2022-12-17T00:55:49.040Z,5.47
2022-12-17T00:58:34.296Z,5.43
2022-12-17T01:01:20.238Z,5.05
2022-12-17T01:04:05.805Z,6.88
2022-12-17T01:06:52.054Z,8.20
2022-12-17T01:09:39.232Z,8.35
2022-12-17T01:12:26.252Z,9.43
2022-12-17T01:15:13.133Z,7.63
2022-12-17T01:17:58.295Z,8.70
2022-12-17T01:20:44.302Z,7.68
2022-12-17T01:23:30.220Z,7.25
2022-12-17T01:26:16.394Z,7.35
2022-12-17T01:29:02.406Z,6.22
2022-12-17T01:31:47.860Z,5.07
2022-12-17T01:34:37.871Z,5.20
2022-12-17T01:37:23.223Z,4.88
2022-12-17T01:40:08.459Z,4.40
2022-12-17T01:43:02.947Z,4.70
2022-12-17T01:46:00.149Z,4.55
2022-12-17T01:48:55.181Z,4.82
2022-12-17T01:51:41.737Z,5.15
2022-12-17T01:54:28.428Z,4.72
2022-12-17T01:57:14.132Z,4.65
2022-12-17T02:00:22.799Z,4.32
2022-12-17T02:03:08.773Z,5.30
2022-12-17T02:06:14.289Z,4.60
2022-12-17T02:09:13.480Z,5.32
2022-12-17T02:12:21.579Z,5.03
2022-12-17T02:15:37.675Z,5.07
2022-12-17T02:18:31.466Z,5.55
2022-12-17T02:21:19.448Z,5.03
2022-12-17T02:24:30.784Z,4.93
2022-12-17T02:30:12.317Z,4.65
2022-12-17T02:33:02.440Z,4.10
2022-12-17T02:35:54.219Z,4.22
2022-12-17T02:38:45.780Z,4.10
2022-12-17T02:41:47.370Z,4.55
2022-12-17T02:44:38.002Z,4.10
2022-12-17T02:47:28.269Z,4.28
2022-12-17T02:50:14.775Z,4.03
2022-12-17T02:53:05.818Z,3.55
2022-12-17T02:55:53.279Z,3.30
2022-12-17T02:58:39.328Z,3.50
2022-12-17T03:01:25.352Z,3.65
2022-12-17T03:04:10.683Z,4.32
2022-12-17T03:06:56.022Z,4.72
2022-12-17T03:09:41.813Z,4.35
2022-12-17T03:12:28.223Z,4.63
2022-12-17T03:15:13.462Z,4.55
2022-12-17T03:17:59.298Z,5.68
2022-12-17T03:20:45.080Z,5.00
2022-12-17T03:23:30.891Z,5.15
2022-12-17T03:26:21.655Z,5.10
2022-12-17T03:29:07.583Z,5.65
2022-12-17T03:31:53.275Z,5.18
2022-12-17T03:34:38.508Z,4.53
2022-12-17T03:37:25.627Z,4.57
2022-12-17T03:40:11.083Z,4.68
2022-12-17T03:42:56.417Z,4.35
2022-12-17T03:45:42.319Z,4.35
2022-12-17T03:48:31.043Z,4.40
2022-12-17T03:51:17.683Z,4.40
2022-12-17T03:54:04.047Z,3.85
2022-12-17T03:56:50.301Z,3.85
2022-12-17T03:59:35.527Z,4.25
2022-12-17T04:02:21.052Z,3.80
2022-12-17T04:05:06.780Z,3.72
2022-12-17T04:07:52.092Z,3.58
2022-12-17T04:10:37.815Z,3.75
2022-12-17T04:13:23.688Z,3.92
2022-12-17T04:16:09.028Z,3.53
2022-12-17T04:18:54.476Z,3.80
2022-12-17T04:21:39.923Z,3.83
2022-12-17T04:24:25.789Z,4.65
2022-12-17T04:27:11.088Z,4.22
2022-12-17T04:29:56.421Z,4.20
2022-12-17T04:32:41.679Z,3.92
2022-12-17T04:35:26.967Z,4.25
2022-12-17T04:38:12.789Z,3.78
2022-12-17T04:40:58.318Z,4.40
2022-12-17T04:43:43.473Z,3.80
2022-12-17T04:46:28.915Z,3.88
2022-12-17T04:49:15.994Z,4.32
2022-12-17T04:52:01.808Z,3.78
2022-12-17T04:54:47.044Z,4.07
2022-12-17T04:57:32.791Z,4.53
2022-12-17T05:00:18.501Z,4.72
2022-12-17T05:03:03.857Z,4.53
2022-12-17T05:05:49.241Z,5.10
2022-12-17T05:08:39.625Z,4.25
2022-12-17T05:11:27.181Z,4.75
2022-12-17T05:14:12.480Z,5.25
2022-12-17T05:16:57.799Z,5.18
2022-12-17T05:19:43.140Z,5.30
2022-12-17T05:22:28.404Z,4.97
2022-12-17T05:25:13.801Z,5.38
2022-12-17T05:27:59.034Z,4.60
2022-12-17T05:30:44.310Z,4.43
2022-12-17T05:33:29.580Z,4.35
2022-12-17T05:36:21.984Z,5.18
2022-12-17T05:39:12.913Z,4.40
2022-12-17T05:41:58.263Z,5.38
2022-12-17T05:44:46.661Z,5.10
2022-12-17T05:47:31.878Z,4.50
2022-12-17T05:50:17.199Z,4.82
2022-12-17T05:53:02.418Z,4.95
2022-12-17T05:55:47.673Z,5.18
2022-12-17T05:58:33.010Z,4.93
2022-12-17T06:01:22.795Z,5.28
2022-12-17T06:04:08.667Z,5.00
2022-12-17T06:06:54.547Z,4.97
2022-12-17T06:09:39.694Z,4.47
2022-12-17T06:12:25.635Z,5.50
2022-12-17T06:15:11.029Z,4.50
2022-12-17T06:17:56.128Z,6.07
2022-12-17T06:20:41.327Z,6.28
2022-12-17T06:23:29.541Z,6.28
2022-12-17T06:26:16.229Z,5.30
2022-12-17T06:29:02.565Z,5.43
2022-12-17T06:31:47.845Z,4.82
2022-12-17T06:34:33.185Z,5.10
2022-12-17T06:37:18.611Z,6.18
2022-12-17T06:40:04.329Z,5.22
2022-12-17T06:42:50.120Z,4.80
2022-12-17T06:45:35.480Z,5.55
2022-12-17T06:48:22.930Z,6.13
2022-12-17T06:51:08.953Z,5.40
2022-12-17T06:53:54.246Z,5.80
2022-12-17T06:56:39.630Z,4.57
2022-12-17T06:59:24.753Z,5.10
2022-12-17T07:02:10.083Z,5.32
2022-12-17T07:04:55.569Z,5.30
2022-12-17T07:07:40.921Z,5.80
2022-12-17T07:10:26.599Z,6.35
2022-12-17T07:13:11.941Z,4.32
2022-12-17T07:15:57.749Z,4.97
2022-12-17T07:18:43.078Z,4.80
2022-12-17T07:21:28.413Z,5.05
2022-12-17T07:24:13.698Z,4.72
2022-12-17T07:26:58.921Z,4.88
2022-12-17T07:29:44.228Z,5.75
2022-12-17T07:32:29.604Z,4.63
2022-12-17T07:35:14.841Z,5.63
2022-12-17T07:38:00.124Z,5.93
2022-12-17T07:40:45.494Z,6.25
2022-12-17T07:43:32.693Z,5.32
2022-12-17T07:46:18.589Z,5.90
2022-12-17T07:49:03.887Z,5.22
2022-12-17T07:51:49.689Z,4.93
2022-12-17T07:54:35.383Z,4.47
2022-12-17T07:57:21.128Z,5.22
2022-12-17T08:00:06.461Z,5.60
2022-12-17T08:02:52.285Z,5.53
2022-12-17T08:05:37.749Z,5.57
2022-12-17T08:08:28.109Z,4.55
2022-12-17T08:11:13.944Z,4.80
2022-12-17T08:13:59.738Z,4.57
2022-12-17T08:16:45.576Z,4.45
2022-12-17T08:19:31.382Z,4.47
2022-12-17T08:22:16.702Z,4.65
2022-12-17T08:25:02.123Z,4.55
2022-12-17T08:27:47.429Z,4.90
2022-12-17T08:30:32.943Z,4.53
2022-12-17T08:33:25.485Z,4.65
2022-12-17T08:36:15.889Z,5.43
2022-12-17T08:39:02.168Z,5.83
2022-12-17T08:41:54.017Z,5.28
2022-12-17T08:44:40.464Z,5.60
2022-12-17T08:47:25.825Z,5.70
2022-12-17T08:50:11.083Z,6.63
2022-12-17T08:52:56.869Z,8.05
2022-12-17T08:55:42.268Z,7.75
2022-12-17T08:58:27.737Z,6.88
2022-12-17T09:01:16.597Z,7.75
2022-12-17T09:04:03.505Z,7.85
2022-12-17T09:06:49.431Z,8.60
2022-12-17T09:09:34.753Z,7.88
2022-12-17T09:12:20.077Z,8.23
2022-12-17T09:15:05.373Z,8.25
2022-12-17T09:17:50.722Z,8.55
2022-12-17T09:20:36.416Z,8.13
2022-12-17T09:23:22.317Z,8.15
2022-12-17T09:26:14.243Z,8.60
2022-12-17T09:29:02.157Z,8.30
2022-12-17T09:31:50.286Z,8.45
2022-12-17T09:34:36.496Z,8.52
2022-12-17T09:37:22.627Z,9.23
2022-12-17T09:40:08.289Z,9.45
2022-12-17T09:43:25.408Z,8.35
2022-12-17T09:46:54.537Z,8.43
2022-12-17T09:49:45.469Z,8.98
2022-12-17T09:52:45.619Z,9.10
2022-12-17T09:55:44.524Z,9.20
2022-12-17T09:58:48.704Z,9.65
2022-12-17T10:01:54.951Z,9.60
2022-12-17T10:04:59.112Z,9.52
2022-12-17T10:07:52.351Z,10.20
2022-12-17T10:10:48.525Z,10.27
2022-12-17T10:13:38.502Z,10.02
2022-12-17T10:16:48.119Z,9.90
2022-12-17T10:19:55.449Z,9.32
2022-12-17T10:22:41.625Z,10.90
2022-12-17T10:25:41.071Z,10.32
2022-12-17T10:28:39.981Z,9.50
2022-12-17T10:31:35.076Z,10.05
2022-12-17T10:34:20.967Z,9.65
2022-12-17T10:37:09.959Z,10.88
2022-12-17T10:39:56.223Z,10.80
2022-12-17T10:42:57.697Z,9.93
2022-12-17T10:45:45.233Z,11.82
2022-12-17T10:48:43.891Z,12.82
2022-12-17T10:51:49.471Z,10.82
2022-12-17T10:54:52.510Z,12.88
2022-12-17T10:57:55.608Z,11.45
2022-12-17T11:00:52.759Z,12.68
2022-12-17T11:03:47.218Z,13.40
2022-12-17T11:06:42.668Z,13.98
2022-12-17T11:10:12.543Z,14.40
2022-12-17T11:13:14.573Z,13.10
2022-12-17T11:16:09.656Z,14.02
2022-12-17T11:18:58.040Z,15.30
2022-12-17T11:22:14.733Z,14.38
2022-12-17T11:25:07.880Z,15.07
2022-12-17T11:28:25.856Z,16.67
2022-12-17T11:31:31.522Z,15.38
2022-12-17T11:35:08.834Z,16.10
2022-12-17T11:38:42.721Z,15.75
2022-12-17T11:42:17.876Z,16.00
2022-12-17T11:45:38.407Z,17.83
2022-12-17T11:48:49.315Z,20.98
2022-12-17T11:51:44.251Z,16.63
2022-12-17T11:54:43.772Z,19.00
2022-12-17T11:57:36.152Z,22.67
2022-12-17T12:00:42.361Z,23.90
2022-12-17T12:04:01.051Z,23.20
2022-12-17T12:06:55.301Z,21.02
2022-12-17T12:09:51.843Z,23.58
2022-12-17T12:12:56.501Z,23.55
2022-12-17T12:16:07.388Z,23.52
2022-12-17T12:19:08.096Z,16.35
2022-12-17T12:22:03.648Z,21.98
2022-12-17T12:25:14.331Z,27.02
2022-12-17T12:28:05.278Z,28.15
2022-12-17T12:31:21.746Z,27.85
2022-12-17T12:34:19.069Z,29.33
2022-12-17T12:37:07.493Z,28.63
2022-12-17T12:40:20.359Z,27.67
2022-12-17T12:43:36.269Z,26.27
2022-12-17T12:46:41.382Z,23.92
2022-12-17T12:49:44.117Z,21.13
2022-12-17T12:52:37.321Z,19.95
2022-12-17T12:55:23.548Z,19.25
2022-12-17T12:58:18.186Z,19.08
2022-12-17T13:01:06.247Z,18.35
2022-12-17T13:04:08.761Z,18.02
2022-12-17T13:06:55.962Z,17.90
2022-12-17T13:09:34.167Z,18.60
2022-12-17T13:12:05.141Z,17.20
2022-12-17T13:14:48.187Z,13.82
2022-12-17T13:17:14.966Z,17.23
2022-12-17T13:19:58.076Z,18.67
2022-12-17T13:22:30.110Z,19.38
2022-12-17T13:25:17.298Z,20.67
2022-12-17T13:27:45.301Z,19.20
2022-12-17T13:30:18.847Z,21.23
2022-12-17T13:33:39.840Z,20.85
2022-12-17T13:36:30.322Z,14.20
2022-12-17T13:39:23.876Z,15.98
2022-12-17T13:41:56.990Z,15.88
2022-12-17T13:44:44.822Z,17.55
2022-12-17T13:47:23.070Z,17.05
2022-12-17T13:50:31.674Z,17.15
2022-12-17T13:52:43.434Z,15.85
2022-12-17T13:55:29.184Z,17.00
2022-12-17T13:57:56.637Z,16.30
2022-12-17T14:00:28.687Z,16.77
2022-12-17T14:02:55.725Z,15.88
2022-12-17T14:05:37.856Z,16.35
2022-12-17T14:08:05.967Z,15.20
2022-12-17T14:10:33.471Z,16.00
2022-12-17T14:13:13.654Z,15.65
2022-12-17T14:15:48.199Z,12.07
2022-12-17T14:18:20.653Z,12.23
2022-12-17T14:20:50.441Z,14.45
2022-12-17T14:23:31.302Z,15.27
2022-12-17T14:25:59.022Z,15.73
2022-12-17T14:28:34.881Z,14.55
2022-12-17T14:31:26.775Z,15.30
2022-12-17T14:34:07.262Z,14.90
2022-12-17T14:36:37.658Z,15.15
2022-12-17T14:39:29.983Z,14.95
2022-12-17T14:42:26.688Z,14.05
2022-12-17T14:45:02.803Z,14.23
2022-12-17T14:47:33.303Z,15.48
2022-12-17T14:50:13.542Z,15.15
2022-12-17T14:52:50.091Z,14.57
2022-12-17T14:55:32.012Z,14.73
2022-12-17T14:58:14.036Z,14.18
2022-12-17T15:00:46.324Z,13.70
2022-12-17T15:03:29.113Z,14.25
2022-12-17T15:06:06.927Z,13.77
2022-12-17T15:08:41.455Z,14.45
2022-12-17T15:11:16.990Z,14.90
2022-12-17T15:13:44.159Z,15.48
2022-12-17T15:16:11.943Z,15.40
2022-12-17T15:18:39.315Z,15.60
2022-12-17T15:21:06.760Z,16.15
2022-12-17T15:23:33.704Z,15.85
2022-12-17T15:26:00.692Z,14.57
2022-12-17T15:28:27.725Z,17.83
2022-12-17T15:30:54.768Z,15.88
2022-12-17T15:33:22.017Z,17.17
2022-12-17T15:35:49.000Z,15.07
2022-12-17T15:38:15.990Z,14.50
2022-12-17T15:40:42.971Z,15.30
2022-12-17T15:43:11.952Z,14.07
2022-12-17T15:45:50.995Z,14.82
2022-12-17T15:48:23.348Z,14.45
2022-12-17T15:50:50.542Z,13.88
2022-12-17T15:53:17.536Z,14.23
2022-12-17T15:55:44.547Z,14.23
2022-12-17T15:58:11.684Z,14.48
2022-12-17T16:00:38.882Z,14.32
2022-12-17T16:03:06.419Z,12.98
2022-12-17T16:05:33.479Z,13.50
2022-12-17T16:08:02.336Z,13.63
2022-12-17T16:10:30.250Z,15.20
2022-12-17T16:12:57.786Z,14.70
2022-12-17T16:15:24.950Z,13.82
2022-12-17T16:17:51.919Z,15.25
2022-12-17T16:20:20.058Z,13.88
2022-12-17T16:22:47.079Z,13.93
2022-12-17T16:25:14.235Z,14.15
2022-12-17T16:27:41.264Z,15.25
2022-12-17T16:30:11.075Z,14.88
2022-12-17T16:32:38.754Z,14.40
2022-12-17T16:35:06.614Z,13.20
2022-12-17T16:37:33.601Z,13.82
2022-12-17T16:40:00.864Z,14.85
2022-12-17T16:42:28.308Z,14.15
2022-12-17T16:44:55.334Z,13.68
2022-12-17T16:47:22.344Z,14.40
2022-12-17T16:49:50.871Z,14.07
2022-12-17T16:52:17.943Z,13.43
2022-12-17T16:54:44.898Z,14.43
2022-12-17T16:57:11.854Z,13.73
2022-12-17T16:59:38.830Z,13.70
2022-12-17T17:02:11.766Z,13.07
2022-12-17T17:04:39.188Z,13.63
2022-12-17T17:07:06.342Z,10.93
2022-12-17T17:09:33.451Z,13.00
2022-12-17T17:12:00.377Z,12.35
2022-12-17T17:14:27.470Z,13.55
2022-12-17T17:16:54.452Z,12.48
2022-12-17T17:19:21.405Z,14.25
2022-12-17T17:21:54.043Z,11.68
2022-12-17T17:24:25.335Z,12.32
2022-12-17T17:26:53.738Z,13.38
2022-12-17T17:29:22.092Z,13.02
2022-12-17T17:34:38.326Z,12.50
2022-12-17T17:37:05.235Z,11.93
2022-12-17T17:39:34.033Z,13.05
2022-12-17T17:42:01.775Z,13.48
2022-12-17T17:44:28.696Z,12.57
2022-12-17T17:46:55.656Z,11.68
2022-12-17T17:49:22.788Z,13.23
2022-12-17T17:54:39.303Z,11.23
2022-12-17T17:57:06.361Z,11.98
2022-12-17T17:59:34.421Z,12.52
2022-12-17T18:02:02.725Z,12.30
2022-12-17T18:04:30.491Z,11.90
2022-12-17T18:09:44.324Z,12.07
2022-12-17T18:12:30.116Z,11.75
2022-12-17T18:15:13.679Z,11.90
2022-12-17T18:17:41.848Z,11.70
2022-12-17T18:20:10.075Z,12.07
2022-12-17T18:22:37.816Z,13.05
2022-12-17T18:25:05.715Z,11.23
2022-12-17T18:27:32.688Z,13.02
2022-12-17T18:29:59.656Z,12.90
2022-12-17T18:32:26.599Z,12.40
2022-12-17T18:34:53.633Z,12.63
2022-12-17T18:37:20.716Z,11.80
2022-12-17T18:39:48.946Z,11.90
2022-12-17T18:42:34.456Z,12.73
2022-12-17T18:45:01.906Z,11.98
2022-12-17T18:47:29.009Z,11.50
2022-12-17T18:49:55.994Z,11.13
2022-12-17T18:52:24.625Z,12.30
2022-12-17T18:54:51.648Z,11.40
2022-12-17T18:57:18.623Z,12.70
2022-12-17T18:59:45.694Z,12.80
2022-12-17T19:02:13.964Z,12.75
2022-12-17T19:04:41.773Z,11.95
2022-12-17T19:07:09.388Z,12.18
2022-12-17T19:09:38.307Z,11.20
2022-12-17T19:12:08.324Z,12.65
2022-12-17T19:14:36.303Z,12.43
2022-12-17T19:17:04.999Z,11.57
2022-12-17T19:19:33.143Z,12.95
2022-12-17T19:22:00.321Z,11.70
2022-12-17T19:24:27.646Z,13.02
2022-12-17T19:26:54.703Z,12.02
2022-12-17T19:29:22.675Z,12.15
2022-12-17T19:31:49.837Z,11.95
2022-12-17T19:34:18.958Z,12.38
2022-12-17T19:36:47.171Z,11.80
2022-12-17T19:39:18.309Z,12.13
2022-12-17T19:44:15.154Z,10.50
2022-12-17T19:46:43.440Z,10.52
2022-12-17T19:49:13.472Z,9.85
2022-12-17T19:51:42.961Z,10.68
2022-12-17T19:54:15.019Z,11.07
2022-12-17T19:56:44.715Z,11.93
2022-12-17T19:59:13.706Z,11.55
2022-12-17T20:01:46.442Z,11.30
2022-12-17T20:04:16.165Z,10.98
2022-12-17T20:06:44.646Z,12.20
2022-12-17T20:09:12.332Z,11.57
2022-12-17T20:11:39.579Z,11.80
2022-12-17T20:14:22.444Z,11.48
2022-12-17T20:16:58.492Z,11.93
2022-12-17T20:19:33.437Z,11.50
2022-12-17T20:22:02.555Z,11.48
2022-12-17T20:24:32.015Z,11.65
2022-12-17T20:27:00.730Z,11.75
2022-12-17T20:29:29.407Z,11.52
2022-12-17T20:31:56.539Z,12.00
2022-12-17T20:34:24.516Z,11.85
2022-12-17T20:36:53.456Z,10.57
2022-12-17T20:39:26.668Z,11.85
2022-12-17T20:41:56.456Z,12.02
2022-12-17T20:44:23.475Z,12.32
2022-12-17T20:46:50.399Z,13.43
2022-12-17T20:49:17.318Z,12.93
2022-12-17T20:51:44.302Z,12.82
2022-12-17T20:54:11.588Z,12.15
2022-12-17T20:56:39.859Z,12.48
2022-12-17T20:59:13.027Z,12.88
2022-12-17T21:01:40.616Z,12.07
2022-12-17T21:04:08.224Z,11.40
2022-12-17T21:06:47.337Z,12.50
2022-12-17T21:09:18.007Z,11.88
2022-12-17T21:11:44.982Z,10.88
2022-12-17T21:14:16.637Z,11.60
2022-12-17T21:16:44.441Z,11.35
2022-12-17T21:19:17.688Z,12.55
2022-12-17T21:21:45.161Z,11.10
2022-12-17T21:24:12.189Z,12.68
2022-12-17T21:26:42.241Z,12.55
2022-12-17T21:29:09.920Z,12.32
2022-12-17T21:31:44.369Z,11.10
2022-12-17T21:34:16.172Z,11.38
2022-12-17T21:36:44.040Z,11.63
2022-12-17T21:39:13.574Z,12.52
2022-12-17T21:41:45.095Z,12.65
2022-12-17T21:44:13.884Z,11.02
2022-12-17T21:46:42.951Z,11.60
2022-12-17T21:49:10.605Z,10.85
2022-12-17T21:51:38.014Z,12.50
2022-12-17T21:54:08.406Z,11.77
2022-12-17T21:59:03.551Z,9.43
2022-12-17T22:01:33.625Z,10.18
2022-12-17T22:04:04.122Z,10.23
2022-12-17T22:06:42.485Z,11.25
2022-12-17T22:09:20.967Z,10.48
2022-12-17T22:12:22.202Z,10.60
2022-12-17T22:14:49.279Z,10.43
2022-12-17T22:17:16.239Z,11.15
2022-12-17T22:19:43.154Z,11.40
2022-12-17T22:22:10.245Z,11.05
2022-12-17T22:24:37.355Z,10.55
2022-12-17T22:27:05.140Z,10.95
2022-12-17T22:29:55.653Z,11.60
2022-12-17T22:32:41.562Z,11.40
2022-12-17T22:36:25.384Z,11.32
2022-12-17T22:42:20.635Z,11.18
2022-12-17T22:44:37.653Z,10.80
2022-12-17T22:44:43.848Z,9.32
2022-12-17T22:46:17.808Z,11.00
2022-12-17T22:48:45.253Z,12.07
2022-12-17T22:51:15.452Z,10.75
2022-12-17T22:53:47.197Z,10.25
2022-12-17T22:56:26.082Z,10.95
2022-12-17T22:59:02.037Z,11.05
2022-12-17T23:01:29.086Z,11.18
2022-12-17T23:03:58.613Z,12.45
2022-12-17T23:06:26.973Z,11.25
2022-12-17T23:08:54.117Z,11.98
2022-12-17T23:11:25.064Z,10.73
2022-12-17T23:13:53.694Z,12.80
2022-12-17T23:16:20.993Z,11.68
2022-12-17T23:18:50.602Z,11.40
2022-12-17T23:21:24.972Z,11.38
2022-12-17T23:23:53.905Z,11.15
2022-12-17T23:26:33.621Z,11.32
2022-12-17T23:29:07.086Z,11.68
2022-12-17T23:31:38.429Z,10.85
2022-12-17T23:34:05.818Z,10.60
2022-12-17T23:36:33.478Z,11.25
2022-12-17T23:39:00.813Z,11.25
2022-12-17T23:41:30.337Z,10.18
2022-12-17T23:43:58.411Z,11.77
2022-12-17T23:46:28.398Z,11.38
2022-12-17T23:48:55.850Z,8.47
2022-12-17T23:51:25.941Z,10.93
2022-12-17T23:53:53.061Z,7.37
2022-12-17T23:56:26.452Z,9.35
2022-12-17T23:59:00.305Z,9.40
